Time;durP1;ratioP1;P1;durP2;ratioP2;P2;SDS_P1;SDS_P2;PMS_P1;PMS_P2;Temp;Humidity;BMP_temperature;BMP_pressure;BME280_temperature;BME280_humidity;BME280_pressure;Samples;Min_cycle;Max_cycle;Signal;HPM_P1;HPM_P2
2021/07/01 00:02:23;;;;;;;;;;;;;;;;;;5051590;28;19921;-74
2021/07/01 00:04:48;;;;;;;;;;;;;;;;;;5034919;28;20033;-74
2021/07/01 00:07:14;;;;;;;;;;;;;;;;;;5051016;28;19921;-74
2021/07/01 00:09:39;;;;;;;;;;;;;;;;;;5052580;28;19912;-74
2021/07/01 00:12:04;;;;;;;;;;;;;;;;;;5035444;28;19924;-75
2021/07/01 00:14:29;;;;;;;;;;;;;;;;;;5052638;28;19917;-74
2021/07/01 00:16:55;;;;;;;;;;;;;;;;;;5051561;28;20015;-74
2021/07/01 00:19:20;;;;;;;;;;;;;;;;;;5050938;28;20272;-74
2021/07/01 00:21:46;;;;;;;;;;;;;;;;;;5051296;28;19925;-74
2021/07/01 00:24:11;;;;;;;;;;;;;;;;;;5051153;28;20298;-74
2021/07/01 00:26:37;;;;;;;;;;;;;;;;;;5051283;28;19917;-74
2021/07/01 00:29:02;;;;;;;;;;;;;;;;;;5034558;28;20383;-74
2021/07/01 00:31:27;;;;;;;;;;;;;;;;;;5051035;28;20019;-74
2021/07/01 00:33:52;;;;;;;;;;;;;;;;;;5050934;28;20407;-74
2021/07/01 00:36:18;;;;;;;;;;;;;;;;;;5034398;28;20007;-74
2021/07/01 00:38:43;;;;;;;;;;;;;;;;;;5051061;28;20375;-74
2021/07/01 00:41:08;;;;;;;;;;;;;;;;;;5034286;28;19921;-74
2021/07/01 00:43:33;;;;;;;;;;;;;;;;;;5051801;28;19913;-74
2021/07/01 00:45:58;;;;;;;;;;;;;;;;;;5051906;28;19916;-74
2021/07/01 00:48:24;;;;;;;;;;;;;;;;;;5052044;28;19955;-74
2021/07/01 00:50:50;;;;;;;;;;;;;;;;;;5031333;28;19917;-74
2021/07/01 00:53:15;;;;;;;;;;;;;;;;;;5050917;28;19917;-74
2021/07/01 00:55:40;;;;;;;;;;;;;;;;;;5051099;28;19917;-74
2021/07/01 00:58:05;;;;;;;;;;;;;;;;;;5034427;28;20368;-74
2021/07/01 01:00:47;;;;;;;;;;;;;;;;;;5051082;28;19963;-74
2021/07/01 01:03:12;;;;;;;;;;;;;;;;;;5053181;28;19931;-74
2021/07/01 01:05:37;;;;;;;;;;;;;;;;;;5054341;28;19917;-74
2021/07/01 01:08:03;;;;;;;;;;;;;;;;;;5055667;28;20345;-74
2021/07/01 01:10:28;;;;;;;;;;;;;;;;;;5037436;28;19921;-74
2021/07/01 01:12:53;;;;;;;;;;;;;;;;;;5053920;28;20291;-74
2021/07/01 01:15:18;;;;;;;;;;;;;;;;;;5054544;28;20490;-74
2021/07/01 01:17:44;;;;;;;;;;;;;;;;;;5054548;28;19917;-74
2021/07/01 01:20:10;;;;;;;;;;;;;;;;;;5054071;28;19917;-74
2021/07/01 01:22:35;;;;;;;;;;;;;;;;;;5054118;28;19932;-74
2021/07/01 01:25:00;;;;;;;;;;;;;;;;;;5055225;28;19916;-74
2021/07/01 01:27:25;;;;;;;;;;;;;;;;;;5053903;28;20387;-74
2021/07/01 01:29:50;;;;;;;;;;;;;;;;;;5037119;28;19923;-74
2021/07/01 01:32:16;;;;;;;;;;;;;;;;;;5034195;28;20007;-74
2021/07/01 01:34:41;;;;;;;;;;;;;;;;;;5054472;28;19966;-74
2021/07/01 01:37:09;;;;;;;;;;;;;;;;;;5037127;28;19917;-74
2021/07/01 01:39:34;;;;;;;;;;;;;;;;;;5037038;28;19924;-74
2021/07/01 01:42:00;;;;;;;;;;;;;;;;;;5053388;28;19973;-74
2021/07/01 01:44:25;;;;;;;;;;;;;;;;;;5037414;28;19917;-74
2021/07/01 01:46:50;;;;;;;;;;;;;;;;;;5055360;28;19966;-74
2021/07/01 01:49:17;;;;;;;;;;;;;;;;;;5036923;28;19916;-74
2021/07/01 01:51:42;;;;;;;;;;;;;;;;;;5053195;28;19924;-74
2021/07/01 01:54:07;;;;;;;;;;;;;;;;;;5033486;28;19921;-74
2021/07/01 01:56:54;;;;;;;;;;;;;;;;;;5053551;28;20456;-74
2021/07/01 01:59:19;;;;;;;;;;;;;;;;;;5053402;28;19917;-74
2021/07/01 02:01:44;;;;;;;;;;;;;;;;;;5036560;28;19921;-74
2021/07/01 02:04:09;;;;;;;;;;;;;;;;;;5036702;28;19943;-74
2021/07/01 02:06:34;;;;;;;;;;;;;;;;;;5036442;28;20415;-74
2021/07/01 02:09:01;;;;;;;;;;;;;;;;;;5037182;28;20346;-74
2021/07/01 02:11:26;;;;;;;;;;;;;;;;;;5053457;28;19924;-75
2021/07/01 02:13:51;;;;;;;;;;;;;;;;;;5053201;28;20352;-74
2021/07/01 02:16:16;;;;;;;;;;;;;;;;;;5033093;28;19917;-74
2021/07/01 02:18:41;;;;;;;;;;;;;;;;;;5045993;28;20414;-74
2021/07/01 02:21:07;;;;;;;;;;;;;;;;;;5053034;28;20240;-74
2021/07/01 02:23:32;;;;;;;;;;;;;;;;;;5033002;28;19917;-74
2021/07/01 02:25:57;;;;;;;;;;;;;;;;;;5052714;28;20059;-74
2021/07/01 02:28:22;;;;;;;;;;;;;;;;;;5053845;28;20303;-74
2021/07/01 02:30:47;;;;;;;;;;;;;;;;;;5053974;28;19931;-74
2021/07/01 02:33:13;;;;;;;;;;;;;;;;;;5052478;28;19921;-74
2021/07/01 02:35:38;;;;;;;;;;;;;;;;;;5055387;28;20006;-74
2021/07/01 02:38:03;;;;;;;;;;;;;;;;;;5052642;28;20384;-74
2021/07/01 02:40:28;;;;;;;;;;;;;;;;;;5053830;28;19916;-74
2021/07/01 02:42:53;;;;;;;;;;;;;;;;;;5035964;28;19928;-74
2021/07/01 02:45:19;;;;;;;;;;;;;;;;;;5052321;28;19917;-74
2021/07/01 02:47:44;;;;;;;;;;;;;;;;;;5068864;28;19929;-74
2021/07/01 02:50:09;;;;;;;;;;;;;;;;;;5052487;28;19919;-74
2021/07/01 02:52:34;;;;;;;;;;;;;;;;;;5053064;28;19920;-74
2021/07/01 02:55:00;;;;;;;;;;;;;;;;;;5052728;28;19917;-74
2021/07/01 02:57:25;;;;;;;;;;;;;;;;;;5052405;28;19917;-74
2021/07/01 02:59:50;;;;;;;;;;;;;;;;;;5053210;28;19924;-74
2021/07/01 03:02:15;;;;;;;;;;;;;;;;;;5053362;28;19943;-74
2021/07/01 03:04:40;;;;;;;;;;;;;;;;;;5052201;28;19917;-74
2021/07/01 03:07:06;;;;;;;;;;;;;;;;;;5035260;28;20464;-74
2021/07/01 03:09:31;;;;;;;;;;;;;;;;;;5035380;28;19917;-74
2021/07/01 03:11:56;;;;;;;;;;;;;;;;;;5034611;28;20335;-74
2021/07/01 03:14:21;;;;;;;;;;;;;;;;;;5052813;28;19917;-74
2021/07/01 03:16:46;;;;;;;;;;;;;;;;;;5052998;28;19960;-74
2021/07/01 03:19:11;;;;;;;;;;;;;;;;;;5051758;28;19913;-74
2021/07/01 03:21:37;;;;;;;;;;;;;;;;;;5051697;28;20299;-74
2021/07/01 03:24:02;;;;;;;;;;;;;;;;;;5053317;28;19913;-74
2021/07/01 03:26:27;;;;;;;;;;;;;;;;;;5052379;28;20356;-74
2021/07/01 03:28:52;;;;;;;;;;;;;;;;;;5051779;28;20359;-74
2021/07/01 03:31:18;;;;;;;;;;;;;;;;;;5051748;28;20034;-74
2021/07/01 03:33:43;;;;;;;;;;;;;;;;;;5031809;28;19917;-74
2021/07/01 03:36:08;;;;;;;;;;;;;;;;;;5049504;28;19970;-75
2021/07/01 03:38:33;;;;;;;;;;;;;;;;;;5067799;28;19967;-74
2021/07/01 03:40:59;;;;;;;;;;;;;;;;;;5035289;28;19943;-74
2021/07/01 03:43:24;;;;;;;;;;;;;;;;;;5031713;28;19913;-74
2021/07/01 03:45:49;;;;;;;;;;;;;;;;;;5051498;28;19920;-74
2021/07/01 03:48:14;;;;;;;;;;;;;;;;;;5035066;28;19913;-74
2021/07/01 03:50:39;;;;;;;;;;;;;;;;;;5034954;28;19917;-74
2021/07/01 03:53:05;;;;;;;;;;;;;;;;;;5051405;28;20408;-74
2021/07/01 03:55:30;;;;;;;;;;;;;;;;;;5035075;28;19917;-74
2021/07/01 03:57:55;;;;;;;;;;;;;;;;;;5052875;28;20379;-74
2021/07/01 04:00:20;;;;;;;;;;;;;;;;;;5053480;28;19923;-74
2021/07/01 04:02:45;;;;;;;;;;;;;;;;;;5049696;28;19923;-74
2021/07/01 04:05:11;;;;;;;;;;;;;;;;;;5034746;28;19920;-74
2021/07/01 04:07:36;;;;;;;;;;;;;;;;;;5034471;28;19919;-74
2021/07/01 04:10:07;;;;;;;;;;;;;;;;;;5051128;28;19939;-75
2021/07/01 04:12:32;;;;;;;;;;;;;;;;;;5058825;23;19955;-79
2021/07/01 04:14:58;;;;;;;;;;;;;;;;;;5011441;28;19944;-80
2021/07/01 04:17:23;;;;;;;;;;;;;;;;;;4997245;28;19926;-79
2021/07/01 04:19:48;;;;;;;;;;;;;;;;;;5015420;28;19921;-79
2021/07/01 04:22:13;;;;;;;;;;;;;;;;;;4985124;28;19921;-79
2021/07/01 04:24:38;;;;;;;;;;;;;;;;;;5003137;28;20360;-79
2021/07/01 04:27:04;;;;;;;;;;;;;;;;;;5004914;28;19918;-79
2021/07/01 04:29:29;;;;;;;;;;;;;;;;;;5014778;28;19918;-79
2021/07/01 04:31:54;;;;;;;;;;;;;;;;;;5014841;28;19952;-79
2021/07/01 04:34:19;;;;;;;;;;;;;;;;;;4993273;28;19917;-79
2021/07/01 04:36:44;;;;;;;;;;;;;;;;;;5014539;28;20446;-79
2021/07/01 04:39:10;;;;;;;;;;;;;;;;;;5018140;28;19943;-81
2021/07/01 04:41:35;;;;;;;;;;;;;;;;;;4998147;28;19921;-79
2021/07/01 04:44:00;;;;;;;;;;;;;;;;;;5017198;28;19917;-79
2021/07/01 04:46:26;;;;;;;;;;;;;;;;;;5013028;28;19923;-79
2021/07/01 04:48:52;;;;;;;;;;;;;;;;;;5017595;28;19929;-80
2021/07/01 04:51:18;;;;;;;;;;;;;;;;;;5018026;28;20395;-80
2021/07/01 04:53:43;;;;;;;;;;;;;;;;;;5000324;28;19918;-80
2021/07/01 04:56:08;;;;;;;;;;;;;;;;;;5018059;28;19921;-80
2021/07/01 04:58:33;;;;;;;;;;;;;;;;;;5005136;28;19980;-80
2021/07/01 05:00:59;;;;;;;;;;;;;;;;;;5017991;28;19922;-80
2021/07/01 05:03:24;;;;;;;;;;;;;;;;;;5017789;28;19917;-80
2021/07/01 05:05:49;;;;;;;;;;;;;;;;;;4989710;28;19917;-80
2021/07/01 05:08:16;;;;;;;;;;;;;;;;;;5003003;28;19925;-80
2021/07/01 05:10:41;;;;;;;;;;;;;;;;;;5017755;28;19941;-79
2021/07/01 05:13:06;;;;;;;;;;;;;;;;;;5018087;28;19918;-79
2021/07/01 05:15:31;;;;;;;;;;;;;;;;;;5005847;28;19929;-79
2021/07/01 05:17:56;;;;;;;;;;;;;;;;;;5014064;28;19968;-80
2021/07/01 05:20:22;;;;;;;;;;;;;;;;;;5015978;28;19921;-80
2021/07/01 05:22:47;;;;;;;;;;;;;;;;;;4997936;28;20059;-81
2021/07/01 05:25:12;;;;;;;;;;;;;;;;;;5004585;28;19928;-79
2021/07/01 05:27:38;;;;;;;;;;;;;;;;;;4999438;28;20304;-79
2021/07/01 05:30:03;;;;;;;;;;;;;;;;;;5014713;28;19924;-81
2021/07/01 05:32:28;;;;;;;;;;;;;;;;;;4983624;28;20304;-80
2021/07/01 05:34:53;;;;;;;;;;;;;;;;;;5001435;28;19999;-79
2021/07/01 05:37:19;;;;;;;;;;;;;;;;;;5001706;28;20400;-79
2021/07/01 05:39:44;;;;;;;;;;;;;;;;;;5017089;28;19918;-79
2021/07/01 05:42:09;;;;;;;;;;;;;;;;;;5000111;28;20403;-80
2021/07/01 05:44:34;;;;;;;;;;;;;;;;;;5001903;28;20013;-79
2021/07/01 05:46:59;;;;;;;;;;;;;;;;;;5000171;28;20004;-79
2021/07/01 05:49:25;;;;;;;;;;;;;;;;;;5016756;28;19918;-79
2021/07/01 05:51:55;;;;;;;;;;;;;;;;;;5016993;28;19960;-79
2021/07/01 05:54:27;;;;;;;;;;;;;;;;;;5017582;28;19924;-79
2021/07/01 05:56:52;;;;;;;;;;;;;;;;;;5017222;28;19921;-79
2021/07/01 05:59:18;;;;;;;;;;;;;;;;;;5016502;28;19917;-79
2021/07/01 06:01:43;;;;;;;;;;;;;;;;;;5000151;28;20036;-79
2021/07/01 06:04:09;;;;;;;;;;;;;;;;;;5003033;28;19953;-80
2021/07/01 06:06:35;;;;;;;;;;;;;;;;;;5015241;28;20449;-80
2021/07/01 06:09:03;;;;;;;;;;;;;;;;;;5000139;28;20008;-80
2021/07/01 06:11:29;;;;;;;;;;;;;;;;;;4999663;28;20257;-78
2021/07/01 06:13:54;;;;;;;;;;;;;;;;;;4999816;28;19967;-80
2021/07/01 06:16:19;;;;;;;;;;;;;;;;;;4987619;28;20339;-79
2021/07/01 06:18:44;;;;;;;;;;;;;;;;;;5003065;28;19987;-79
2021/07/01 06:21:09;;;;;;;;;;;;;;;;;;5004667;28;20454;-80
2021/07/01 06:23:39;;;;;;;;;;;;;;;;;;5000055;28;19913;-79
2021/07/01 06:26:04;;;;;;;;;;;;;;;;;;4999565;28;20281;-79
2021/07/01 06:28:30;;;;;;;;;;;;;;;;;;4996527;28;19913;-80
2021/07/01 06:30:55;;;;;;;;;;;;;;;;;;5011277;28;20012;-80
2021/07/01 06:33:21;;;;;;;;;;;;;;;;;;5016940;28;20391;-80
2021/07/01 06:35:47;;;;;;;;;;;;;;;;;;5015596;28;19914;-79
2021/07/01 06:38:12;;;;;;;;;;;;;;;;;;5002704;28;19928;-80
2021/07/01 06:40:38;;;;;;;;;;;;;;;;;;4999499;28;19917;-79
2021/07/01 06:43:03;;;;;;;;;;;;;;;;;;4999523;28;19968;-79
2021/07/01 06:45:28;;;;;;;;;;;;;;;;;;4982705;28;19920;-80
2021/07/01 06:47:54;;;;;;;;;;;;;;;;;;4999840;28;19924;-79
2021/07/01 06:50:23;;;;;;;;;;;;;;;;;;5016678;28;19941;-80
2021/07/01 06:52:48;;;;;;;;;;;;;;;;;;4998589;28;19924;-80
2021/07/01 06:55:13;;;;;;;;;;;;;;;;;;4998740;28;19913;-79
2021/07/01 06:57:39;;;;;;;;;;;;;;;;;;4998760;28;20372;-79
2021/07/01 07:00:05;;;;;;;;;;;;;;;;;;5003477;28;20376;-79
2021/07/01 07:02:32;;;;;;;;;;;;;;;;;;5014713;28;19929;-79
2021/07/01 07:04:57;;;;;;;;;;;;;;;;;;5011280;28;19913;-79
2021/07/01 07:07:23;;;;;;;;;;;;;;;;;;4998472;28;19920;-81
2021/07/01 07:09:49;;;;;;;;;;;;;;;;;;5015525;28;19918;-80
2021/07/01 07:12:14;;;;;;;;;;;;;;;;;;5016088;28;20120;-79
2021/07/01 07:14:40;;;;;;;;;;;;;;;;;;4999996;28;20057;-79
2021/07/01 07:17:05;;;;;;;;;;;;;;;;;;5015791;28;19963;-79
2021/07/01 07:19:30;;;;;;;;;;;;;;;;;;4998004;28;19918;-79
2021/07/01 07:21:55;;;;;;;;;;;;;;;;;;4998449;28;19928;-80
2021/07/01 07:24:21;;;;;;;;;;;;;;;;;;4998396;28;19925;-80
2021/07/01 07:26:50;;;;;;;;;;;;;;;;;;5013801;28;20364;-80
2021/07/01 07:29:15;;;;;;;;;;;;;;;;;;4989906;28;19918;-80
2021/07/01 07:31:40;;;;;;;;;;;;;;;;;;4997892;28;19971;-80
2021/07/01 07:34:05;;;;;;;;;;;;;;;;;;4998360;28;19964;-80
2021/07/01 07:36:31;;;;;;;;;;;;;;;;;;5002655;28;20284;-79
2021/07/01 07:38:56;;;;;;;;;;;;;;;;;;4998083;28;19925;-79
2021/07/01 07:41:21;;;;;;;;;;;;;;;;;;5015865;28;19943;-79
2021/07/01 07:43:47;;;;;;;;;;;;;;;;;;4997788;28;20001;-79
2021/07/01 07:46:12;;;;;;;;;;;;;;;;;;4997922;28;19918;-79
2021/07/01 07:48:38;;;;;;;;;;;;;;;;;;4997504;28;19925;-79
2021/07/01 07:51:03;;;;;;;;;;;;;;;;;;5012684;28;19917;-79
2021/07/01 07:53:29;;;;;;;;;;;;;;;;;;5001825;28;19967;-80
2021/07/01 07:56:02;;;;;;;;;;;;;;;;;;4982908;28;19957;-80
2021/07/01 07:58:29;;;;;;;;;;;;;;;;;;5008013;28;20434;-80
2021/07/01 08:00:54;;;;;;;;;;;;;;;;;;4999523;28;20020;-79
2021/07/01 08:03:19;;;;;;;;;;;;;;;;;;5006956;28;20419;-79
2021/07/01 08:05:44;;;;;;;;;;;;;;;;;;4999575;28;20015;-79
2021/07/01 08:08:12;;;;;;;;;;;;;;;;;;4981216;28;19996;-80
2021/07/01 08:10:37;;;;;;;;;;;;;;;;;;5002958;28;20511;-79
2021/07/01 08:13:07;;;;;;;;;;;;;;;;;;5004803;28;19921;-80
2021/07/01 08:15:33;;;;;;;;;;;;;;;;;;5010783;28;19992;-80
2021/07/01 08:17:58;;;;;;;;;;;;;;;;;;5001324;28;19964;-79
2021/07/01 08:20:23;;;;;;;;;;;;;;;;;;5001301;28;19960;-80
2021/07/01 08:22:49;;;;;;;;;;;;;;;;;;5004597;28;19987;-79
2021/07/01 08:25:14;;;;;;;;;;;;;;;;;;5001532;28;19921;-79
2021/07/01 08:27:40;;;;;;;;;;;;;;;;;;5007795;28;19913;-79
2021/07/01 08:30:07;;;;;;;;;;;;;;;;;;5006681;28;19917;-80
2021/07/01 08:32:32;;;;;;;;;;;;;;;;;;5019296;28;20004;-80
2021/07/01 08:34:58;;;;;;;;;;;;;;;;;;5018597;28;20405;-79
2021/07/01 08:37:23;;;;;;;;;;;;;;;;;;5000889;28;19922;-79
2021/07/01 08:39:48;;;;;;;;;;;;;;;;;;5001781;28;19927;-79
2021/07/01 08:42:14;;;;;;;;;;;;;;;;;;5016852;28;19984;-80
2021/07/01 08:44:44;;;;;;;;;;;;;;;;;;4987901;28;20348;-79
2021/07/01 08:47:11;;;;;;;;;;;;;;;;;;5019524;28;20331;-79
2021/07/01 08:49:53;;;;;;;;;;;;;;;;;;5000448;28;20300;-79
2021/07/01 08:52:42;;;;;;;;;;;;;;;;;;5001554;28;19921;-79
2021/07/01 08:55:07;;;;;;;;;;;;;;;;;;4970184;28;19917;-79
2021/07/01 08:57:36;;;;;;;;;;;;;;;;;;5018522;28;20429;-79
2021/07/01 09:00:08;;;;;;;;;;;;;;;;;;4991520;28;20015;-79
2021/07/01 09:02:38;;;;;;;;;;;;;;;;;;5006179;28;20397;-79
2021/07/01 09:05:04;;;;;;;;;;;;;;;;;;5017100;28;19957;-79
2021/07/01 09:07:30;;;;;;;;;;;;;;;;;;5000922;28;20414;-79
2021/07/01 09:09:56;;;;;;;;;;;;;;;;;;5000700;28;19976;-79
2021/07/01 09:12:25;;;;;;;;;;;;;;;;;;5002956;28;19929;-79
2021/07/01 09:15:01;;;;;;;;;;;;;;;;;;5004568;28;19918;-80
2021/07/01 09:17:27;;;;;;;;;;;;;;;;;;5000540;28;19921;-80
2021/07/01 09:19:53;;;;;;;;;;;;;;;;;;5016186;28;19928;-79
2021/07/01 09:22:18;;;;;;;;;;;;;;;;;;5000871;28;19921;-79
2021/07/01 09:24:44;;;;;;;;;;;;;;;;;;4996986;28;19917;-79
2021/07/01 09:27:10;;;;;;;;;;;;;;;;;;4988877;28;20475;-80
2021/07/01 09:29:36;;;;;;;;;;;;;;;;;;5002066;28;20285;-80
2021/07/01 09:32:02;;;;;;;;;;;;;;;;;;5008634;28;19925;-80
2021/07/01 09:34:27;;;;;;;;;;;;;;;;;;5008069;28;19918;-79
2021/07/01 09:36:55;;;;;;;;;;;;;;;;;;5006486;28;19943;-80
2021/07/01 09:39:21;;;;;;;;;;;;;;;;;;5000124;28;19918;-80
2021/07/01 09:41:47;;;;;;;;;;;;;;;;;;4985778;28;19929;-80
2021/07/01 09:44:12;;;;;;;;;;;;;;;;;;5001165;28;19926;-79
2021/07/01 09:46:37;;;;;;;;;;;;;;;;;;5000341;28;20007;-80
2021/07/01 09:49:03;;;;;;;;;;;;;;;;;;4999685;28;19924;-79
2021/07/01 09:51:29;;;;;;;;;;;;;;;;;;4999849;28;19917;-79
2021/07/01 09:53:54;;;;;;;;;;;;;;;;;;5001421;28;19925;-79
2021/07/01 09:56:37;;;;;;;;;;;;;;;;;;4999637;28;19960;-79
2021/07/01 09:59:02;;;;;;;;;;;;;;;;;;5005553;28;19913;-79
2021/07/01 10:01:28;;;;;;;;;;;;;;;;;;5002809;28;19928;-79
2021/07/01 10:03:54;;;;;;;;;;;;;;;;;;4999699;28;19921;-79
2021/07/01 10:06:19;;;;;;;;;;;;;;;;;;5009961;28;20000;-79
2021/07/01 10:08:44;;;;;;;;;;;;;;;;;;5000362;28;19917;-79
2021/07/01 10:11:09;;;;;;;;;;;;;;;;;;5007411;28;19917;-80
2021/07/01 10:13:34;;;;;;;;;;;;;;;;;;5044238;23;19933;-74
2021/07/01 10:16:00;;;;;;;;;;;;;;;;;;5031462;28;20025;-74
2021/07/01 10:18:27;;;;;;;;;;;;;;;;;;5052201;28;19917;-74
2021/07/01 10:20:54;;;;;;;;;;;;;;;;;;5053789;28;19923;-74
2021/07/01 10:23:19;;;;;;;;;;;;;;;;;;5023283;28;19916;-75
2021/07/01 10:25:45;;;;;;;;;;;;;;;;;;5030646;28;20015;-74
2021/07/01 10:28:11;;;;;;;;;;;;;;;;;;5035365;28;19925;-75
2021/07/01 10:30:36;;;;;;;;;;;;;;;;;;5019405;28;19913;-74
2021/07/01 10:33:01;;;;;;;;;;;;;;;;;;5025244;28;19917;-76
2021/07/01 10:35:27;;;;;;;;;;;;;;;;;;5031006;28;19921;-74
2021/07/01 10:38:11;;;;;;;;;;;;;;;;;;5039039;28;20677;-74
2021/07/01 10:40:41;;;;;;;;;;;;;;;;;;5036767;28;20572;-74
2021/07/01 10:43:06;;;;;;;;;;;;;;;;;;5048708;28;19960;-73
2021/07/01 10:45:32;;;;;;;;;;;;;;;;;;5031482;28;19994;-75
2021/07/01 10:48:17;;;;;;;;;;;;;;;;;;5036973;28;19913;-74
2021/07/01 10:50:42;;;;;;;;;;;;;;;;;;5035809;28;19924;-74
2021/07/01 10:53:24;;;;;;;;;;;;;;;;;;5035770;28;19913;-74
2021/07/01 10:55:49;;;;;;;;;;;;;;;;;;5019235;28;19917;-75
2021/07/01 10:58:15;;;;;;;;;;;;;;;;;;5053458;28;19919;-74
2021/07/01 11:00:41;;;;;;;;;;;;;;;;;;5035655;28;20399;-75
2021/07/01 11:03:28;;;;;;;;;;;;;;;;;;5035507;28;19920;-75
2021/07/01 11:05:53;;;;;;;;;;;;;;;;;;5053288;28;19917;-75
2021/07/01 11:08:30;;;;;;;;;;;;;;;;;;5035385;28;20276;-75
2021/07/01 11:10:56;;;;;;;;;;;;;;;;;;5053296;28;19917;-75
2021/07/01 11:13:24;;;;;;;;;;;;;;;;;;5018794;28;19920;-75
2021/07/01 11:16:08;;;;;;;;;;;;;;;;;;5019254;28;19921;-75
2021/07/01 11:18:34;;;;;;;;;;;;;;;;;;5037131;28;20011;-75
2021/07/01 11:21:06;;;;;;;;;;;;;;;;;;5053430;28;20011;-75
2021/07/01 11:23:31;;;;;;;;;;;;;;;;;;5035428;28;20848;-75
2021/07/01 11:25:57;;;;;;;;;;;;;;;;;;5019087;28;20002;-75
2021/07/01 11:28:31;;;;;;;;;;;;;;;;;;5036039;28;19912;-75
2021/07/01 11:31:01;;;;;;;;;;;;;;;;;;5020022;28;19917;-75
2021/07/01 11:33:26;;;;;;;;;;;;;;;;;;5018963;28;19952;-75
2021/07/01 11:36:07;;;;;;;;;;;;;;;;;;5035336;28;19923;-75
2021/07/01 11:38:32;;;;;;;;;;;;;;;;;;5018748;28;19923;-75
2021/07/01 11:41:00;;;;;;;;;;;;;;;;;;5034931;28;20020;-75
2021/07/01 11:43:25;;;;;;;;;;;;;;;;;;5035542;28;19923;-75
2021/07/01 11:45:50;;;;;;;;;;;;;;;;;;5018144;28;19921;-75
2021/07/01 11:48:15;;;;;;;;;;;;;;;;;;5034926;28;19962;-75
2021/07/01 11:50:41;;;;;;;;;;;;;;;;;;5034925;28;19927;-75
2021/07/01 11:53:06;;;;;;;;;;;;;;;;;;5035333;28;20787;-75
2021/07/01 11:55:31;;;;;;;;;;;;;;;;;;5035624;28;19913;-75
2021/07/01 11:57:56;;;;;;;;;;;;;;;;;;5035410;28;19917;-75
2021/07/01 12:00:21;;;;;;;;;;;;;;;;;;5018308;28;19920;-77
2021/07/01 12:02:47;;;;;;;;;;;;;;;;;;5034928;28;19979;-74
2021/07/01 12:05:12;;;;;;;;;;;;;;;;;;5018449;28;19916;-74
2021/07/01 12:07:41;;;;;;;;;;;;;;;;;;5034686;28;19924;-74
2021/07/01 12:10:06;;;;;;;;;;;;;;;;;;5035442;28;19917;-74
2021/07/01 12:12:32;;;;;;;;;;;;;;;;;;5018644;28;19924;-76
2021/07/01 12:15:03;;;;;;;;;;;;;;;;;;5052475;28;19956;-76
2021/07/01 12:17:47;;;;;;;;;;;;;;;;;;5034825;28;19916;-74
2021/07/01 12:20:24;;;;;;;;;;;;;;;;;;5034615;28;19928;-74
2021/07/01 12:22:50;;;;;;;;;;;;;;;;;;5034986;28;20051;-74
2021/07/01 12:25:17;;;;;;;;;;;;;;;;;;5034664;28;20392;-74
2021/07/01 12:27:42;;;;;;;;;;;;;;;;;;5035492;28;19920;-74
2021/07/01 12:30:08;;;;;;;;;;;;;;;;;;5018172;28;20283;-74
2021/07/01 12:32:33;;;;;;;;;;;;;;;;;;5018042;28;19917;-74
2021/07/01 12:34:58;;;;;;;;;;;;;;;;;;5034681;28;19939;-74
2021/07/01 12:37:24;;;;;;;;;;;;;;;;;;5034658;28;19916;-74
2021/07/01 12:39:49;;;;;;;;;;;;;;;;;;5017846;28;19968;-74
2021/07/01 12:42:14;;;;;;;;;;;;;;;;;;5034125;28;19917;-75
2021/07/01 12:44:41;;;;;;;;;;;;;;;;;;5050629;28;20338;-75
2021/07/01 12:47:11;;;;;;;;;;;;;;;;;;5041433;28;19912;-75
2021/07/01 12:49:37;;;;;;;;;;;;;;;;;;5035421;28;19966;-74
2021/07/01 12:52:03;;;;;;;;;;;;;;;;;;5052297;28;19920;-75
2021/07/01 12:54:31;;;;;;;;;;;;;;;;;;5034379;28;19963;-75
2021/07/01 12:56:56;;;;;;;;;;;;;;;;;;5052169;28;19917;-75
2021/07/01 12:59:22;;;;;;;;;;;;;;;;;;5036491;28;19921;-75
2021/07/01 13:01:47;;;;;;;;;;;;;;;;;;5037655;28;20371;-75
2021/07/01 13:04:12;;;;;;;;;;;;;;;;;;5040870;28;19917;-75
2021/07/01 13:06:41;;;;;;;;;;;;;;;;;;5034875;28;20394;-75
2021/07/01 13:09:06;;;;;;;;;;;;;;;;;;5017871;28;19943;-75
2021/07/01 13:11:41;;;;;;;;;;;;;;;;;;5017638;28;20382;-75
2021/07/01 13:14:07;;;;;;;;;;;;;;;;;;5017893;28;20003;-75
2021/07/01 13:16:32;;;;;;;;;;;;;;;;;;5034285;28;20012;-75
2021/07/01 13:19:16;;;;;;;;;;;;;;;;;;5033884;28;20407;-75
2021/07/01 13:21:48;;;;;;;;;;;;;;;;;;5017943;28;19920;-75
2021/07/01 13:24:13;;;;;;;;;;;;;;;;;;5034209;28;20373;-75
2021/07/01 13:26:38;;;;;;;;;;;;;;;;;;5034927;28;19974;-74
2021/07/01 13:29:04;;;;;;;;;;;;;;;;;;5033851;28;19921;-75
2021/07/01 13:31:29;;;;;;;;;;;;;;;;;;5023015;28;19928;-76
2021/07/01 13:34:06;;;;;;;;;;;;;;;;;;5058572;28;19979;-76
2021/07/01 13:36:32;;;;;;;;;;;;;;;;;;5036573;28;20376;-77
2021/07/01 13:38:57;;;;;;;;;;;;;;;;;;5041605;28;19966;-76
2021/07/01 13:41:25;;;;;;;;;;;;;;;;;;5033699;28;20407;-76
2021/07/01 13:43:51;;;;;;;;;;;;;;;;;;5033785;28;19927;-75
2021/07/01 13:46:16;;;;;;;;;;;;;;;;;;5017080;28;20003;-76
2021/07/01 13:48:41;;;;;;;;;;;;;;;;;;5033325;28;20393;-75
2021/07/01 13:51:06;;;;;;;;;;;;;;;;;;5033695;28;19920;-76
2021/07/01 13:53:34;;;;;;;;;;;;;;;;;;5017002;28;19952;-75
2021/07/01 13:56:01;;;;;;;;;;;;;;;;;;5016990;28;19927;-76
2021/07/01 13:58:26;;;;;;;;;;;;;;;;;;5016913;28;20015;-76
2021/07/01 14:00:53;;;;;;;;;;;;;;;;;;5016695;28;20375;-77
2021/07/01 14:03:18;;;;;;;;;;;;;;;;;;5017307;28;20359;-77
2021/07/01 14:05:44;;;;;;;;;;;;;;;;;;5016878;28;19967;-76
2021/07/01 14:08:29;;;;;;;;;;;;;;;;;;5017489;28;19924;-77
2021/07/01 14:10:58;;;;;;;;;;;;;;;;;;5041706;28;19925;-77
2021/07/01 14:13:23;;;;;;;;;;;;;;;;;;5034234;28;20317;-77
2021/07/01 14:15:49;;;;;;;;;;;;;;;;;;5034165;28;20039;-77
2021/07/01 14:18:14;;;;;;;;;;;;;;;;;;5017154;28;20380;-76
2021/07/01 14:20:39;;;;;;;;;;;;;;;;;;5033407;28;20039;-77
2021/07/01 14:23:16;;;;;;;;;;;;;;;;;;5033762;28;19978;-77
2021/07/01 14:25:41;;;;;;;;;;;;;;;;;;5034058;28;19921;-77
2021/07/01 14:28:08;;;;;;;;;;;;;;;;;;5034381;28;19962;-76
2021/07/01 14:30:37;;;;;;;;;;;;;;;;;;5016982;28;19917;-77
2021/07/01 14:33:23;;;;;;;;;;;;;;;;;;5033706;28;19921;-77
2021/07/01 14:35:56;;;;;;;;;;;;;;;;;;5019652;28;19924;-77
2021/07/01 14:38:25;;;;;;;;;;;;;;;;;;5016226;28;19920;-77
2021/07/01 14:40:57;;;;;;;;;;;;;;;;;;5016235;28;20374;-76
2021/07/01 14:43:27;;;;;;;;;;;;;;;;;;5033004;28;19917;-77
2021/07/01 14:46:08;;;;;;;;;;;;;;;;;;5016598;28;19928;-77
2021/07/01 14:48:33;;;;;;;;;;;;;;;;;;5016641;28;19966;-76
2021/07/01 14:51:14;;;;;;;;;;;;;;;;;;5051250;28;20308;-77
2021/07/01 14:53:40;;;;;;;;;;;;;;;;;;5021085;28;19923;-77
2021/07/01 14:56:05;;;;;;;;;;;;;;;;;;5036929;28;19917;-77
2021/07/01 14:58:45;;;;;;;;;;;;;;;;;;5021068;28;20476;-78
2021/07/01 15:01:13;;;;;;;;;;;;;;;;;;5020103;28;19924;-76
2021/07/01 15:03:39;;;;;;;;;;;;;;;;;;5020037;28;20427;-77
2021/07/01 15:06:11;;;;;;;;;;;;;;;;;;5037846;28;19916;-77
2021/07/01 15:08:36;;;;;;;;;;;;;;;;;;5036027;28;19917;-79
2021/07/01 15:11:18;;;;;;;;;;;;;;;;;;5021164;28;19924;-77
2021/07/01 15:13:43;;;;;;;;;;;;;;;;;;5020489;28;19917;-77
2021/07/01 15:16:21;;;;;;;;;;;;;;;;;;5020198;28;19928;-76
2021/07/01 15:18:47;;;;;;;;;;;;;;;;;;5023592;28;19920;-77
2021/07/01 15:21:12;;;;;;;;;;;;;;;;;;5041409;28;20376;-77
2021/07/01 15:23:51;;;;;;;;;;;;;;;;;;5024091;28;19965;-77
2021/07/01 15:26:16;;;;;;;;;;;;;;;;;;5025396;28;19917;-77
2021/07/01 15:28:41;;;;;;;;;;;;;;;;;;5020197;28;20062;-77
2021/07/01 15:31:07;;;;;;;;;;;;;;;;;;5036849;28;19917;-76
2021/07/01 15:33:32;;;;;;;;;;;;;;;;;;5033371;28;19927;-77
2021/07/01 15:35:58;;;;;;;;;;;;;;;;;;5023472;28;20367;-77
2021/07/01 15:38:23;;;;;;;;;;;;;;;;;;5018955;28;19927;-76
2021/07/01 15:40:50;;;;;;;;;;;;;;;;;;5034533;28;20221;-75
2021/07/01 15:43:15;;;;;;;;;;;;;;;;;;5017224;28;20411;-76
2021/07/01 15:45:40;;;;;;;;;;;;;;;;;;5015605;28;19917;-76
2021/07/01 15:48:07;;;;;;;;;;;;;;;;;;5031992;28;19927;-76
2021/07/01 15:50:32;;;;;;;;;;;;;;;;;;5019828;28;20375;-76
2021/07/01 15:52:58;;;;;;;;;;;;;;;;;;5024153;28;19947;-76
2021/07/01 15:55:23;;;;;;;;;;;;;;;;;;5015983;28;19928;-76
2021/07/01 15:57:48;;;;;;;;;;;;;;;;;;5025290;28;19943;-76
2021/07/01 16:00:14;;;;;;;;;;;;;;;;;;5017439;28;20399;-76
2021/07/01 16:02:40;;;;;;;;;;;;;;;;;;5018126;28;19971;-76
2021/07/01 16:05:06;;;;;;;;;;;;;;;;;;5016542;28;19912;-76
2021/07/01 16:07:31;;;;;;;;;;;;;;;;;;5020573;28;19924;-77
2021/07/01 16:09:56;;;;;;;;;;;;;;;;;;5035128;28;20399;-77
2021/07/01 16:12:25;;;;;;;;;;;;;;;;;;5036245;28;20578;-77
2021/07/01 16:14:52;;;;;;;;;;;;;;;;;;5039395;28;19986;-76
2021/07/01 16:17:17;;;;;;;;;;;;;;;;;;5036765;28;19955;-77
2021/07/01 16:19:42;;;;;;;;;;;;;;;;;;5049037;28;19988;-77
2021/07/01 16:22:07;;;;;;;;;;;;;;;;;;5021127;28;19947;-77
2021/07/01 16:24:34;;;;;;;;;;;;;;;;;;5033805;28;19917;-77
2021/07/01 16:26:59;;;;;;;;;;;;;;;;;;5017113;28;19921;-77
2021/07/01 16:29:27;;;;;;;;;;;;;;;;;;5015439;28;20272;-76
2021/07/01 16:31:53;;;;;;;;;;;;;;;;;;5032219;28;19921;-77
2021/07/01 16:34:18;;;;;;;;;;;;;;;;;;5026811;28;19970;-76
2021/07/01 16:36:46;;;;;;;;;;;;;;;;;;5020337;28;19956;-76
2021/07/01 16:39:11;;;;;;;;;;;;;;;;;;5054301;28;19920;-76
2021/07/01 16:41:36;;;;;;;;;;;;;;;;;;5036573;28;19947;-76
2021/07/01 16:44:02;;;;;;;;;;;;;;;;;;5023759;28;20011;-76